Time;durP1;ratioP1;P1;durP2;ratioP2;P2;SDS_P1;SDS_P2;PMS_P1;PMS_P2;Temp;Humidity;BMP_temperature;BMP_pressure;BME280_temperature;BME280_humidity;BME280_pressure;Samples;Min_cycle;Max_cycle;Signal;HPM_P1;HPM_P2
2022/11/15 00:01:10;;;;;;;3.13;2.87;;;21.90;89.20;;;;;;4987138;28;20459;-73
2022/11/15 00:03:37;;;;;;;4.20;3.40;;;21.90;89.50;;;;;;4989014;28;20460;-71
2022/11/15 00:06:04;;;;;;;4.07;3.67;;;21.90;89.30;;;;;;4997089;28;20196;-72
2022/11/15 00:08:32;;;;;;;3.90;3.13;;;21.80;89.90;;;;;;4988306;28;20494;-70
2022/11/15 00:11:00;;;;;;;3.57;3.27;;;21.80;90.00;;;;;;4990389;28;20981;-69
2022/11/15 00:13:26;;;;;;;4.60;3.60;;;21.90;90.00;;;;;;4977009;28;20947;-69
2022/11/15 00:15:53;;;;;;;3.30;3.10;;;21.80;90.00;;;;;;4986090;28;20491;-71
2022/11/15 00:18:21;;;;;;;5.87;2.63;;;21.80;90.00;;;;;;4987573;28;20465;-69
2022/11/15 00:20:48;;;;;;;3.90;3.23;;;21.80;90.10;;;;;;4988849;28;20459;-71
2022/11/15 00:23:15;;;;;;;4.10;2.67;;;21.80;90.10;;;;;;4989109;28;20456;-73
2022/11/15 00:25:41;;;;;;;5.50;3.67;;;21.80;90.10;;;;;;5000806;28;20528;-73
2022/11/15 00:28:08;;;;;;;3.10;2.53;;;21.70;90.20;;;;;;4993269;28;20455;-73
2022/11/15 00:30:35;;;;;;;3.20;2.70;;;21.70;90.20;;;;;;4997187;28;20598;-73
2022/11/15 00:33:03;;;;;;;3.22;2.92;;;21.70;90.20;;;;;;5001524;28;20259;-73
2022/11/15 00:35:33;;;;;;;3.53;2.50;;;21.60;90.30;;;;;;4986500;28;20648;-72
2022/11/15 00:37:59;;;;;;;3.85;3.38;;;21.60;90.40;;;;;;4992676;28;20464;-72
2022/11/15 00:40:26;;;;;;;3.37;3.07;;;21.50;90.40;;;;;;4991068;28;20222;-74
2022/11/15 00:42:53;;;;;;;6.32;2.40;;;21.60;90.30;;;;;;4989831;28;20460;-74
2022/11/15 00:45:20;;;;;;;2.90;2.60;;;21.70;90.20;;;;;;4986421;28;20238;-73
2022/11/15 00:47:46;;;;;;;4.17;3.00;;;21.70;90.20;;;;;;5001593;28;20205;-73
2022/11/15 00:50:14;;;;;;;3.60;3.30;;;21.70;90.20;;;;;;4997142;28;20460;-74
2022/11/15 00:52:42;;;;;;;2.93;2.63;;;21.70;90.20;;;;;;4997911;28;20244;-73
2022/11/15 00:55:14;;;;;;;5.90;3.10;;;21.70;90.20;;;;;;4991759;28;21045;-72
2022/11/15 00:57:40;;;;;;;7.43;2.70;;;21.60;90.20;;;;;;4989662;28;20539;-72
2022/11/15 01:00:08;;;;;;;3.47;2.90;;;21.60;90.40;;;;;;4996798;28;20466;-74
2022/11/15 01:02:35;;;;;;;3.90;3.50;;;21.50;90.70;;;;;;5000081;28;20196;-73
2022/11/15 01:05:02;;;;;;;5.67;3.53;;;21.40;90.80;;;;;;4995658;28;20466;-73
2022/11/15 01:07:29;;;;;;;3.13;2.70;;;21.40;90.90;;;;;;5001883;28;20470;-74
2022/11/15 01:09:58;;;;;;;3.70;2.80;;;21.30;90.90;;;;;;4992240;28;20448;-73
2022/11/15 01:12:25;;;;;;;3.93;2.47;;;21.30;91.40;;;;;;4990913;28;20480;-73
2022/11/15 01:14:52;;;;;;;3.33;2.88;;;21.30;91.10;;;;;;4992004;28;20455;-73
2022/11/15 01:17:19;;;;;;;3.77;2.30;;;21.30;91.00;;;;;;4987987;28;20207;-73
2022/11/15 01:19:46;;;;;;;3.30;2.75;;;21.40;91.00;;;;;;4991277;28;20468;-73
2022/11/15 01:22:13;;;;;;;3.60;3.30;;;21.40;90.90;;;;;;4999791;28;20219;-74
2022/11/15 01:24:39;;;;;;;4.50;3.10;;;21.40;90.80;;;;;;4990560;28;20460;-74
2022/11/15 01:27:08;;;;;;;3.58;2.90;;;21.40;90.80;;;;;;4992396;28;20571;-73
2022/11/15 01:29:34;;;;;;;2.90;2.60;;;21.40;90.80;;;;;;4992002;28;20205;-73
2022/11/15 01:32:01;;;;;;;2.42;2.22;;;21.40;90.80;;;;;;4990650;28;20273;-73
2022/11/15 01:34:28;;;;;;;3.65;3.35;;;21.40;90.90;;;;;;4994408;28;20237;-74
2022/11/15 01:36:55;;;;;;;3.05;2.50;;;21.40;90.90;;;;;;4997933;28;20382;-73
2022/11/15 01:39:22;;;;;;;3.22;2.67;;;21.40;90.90;;;;;;4992066;28;20209;-73
2022/11/15 01:41:48;;;;;;;4.35;2.90;;;21.30;90.90;;;;;;4990363;28;20675;-73
2022/11/15 01:44:40;;;;;;;3.10;2.10;;;21.30;90.90;;;;;;4992972;28;20197;-73
2022/11/15 01:47:11;;;;;;;2.70;2.50;;;21.30;91.00;;;;;;4987784;28;20780;-73
2022/11/15 01:49:41;;;;;;;3.65;2.97;;;21.30;91.00;;;;;;4985381;28;20201;-74
2022/11/15 01:52:12;;;;;;;6.22;2.70;;;21.30;91.00;;;;;;4985468;28;20214;-74
2022/11/15 01:54:39;;;;;;;3.13;2.40;;;21.30;91.30;;;;;;4990928;28;20596;-73
2022/11/15 01:57:09;;;;;;;3.20;2.45;;;21.10;91.60;;;;;;5003557;28;20559;-73
2022/11/15 01:59:41;;;;;;;2.80;2.55;;;21.10;92.10;;;;;;4981494;28;20202;-73
2022/11/15 02:02:08;;;;;;;2.55;1.95;;;21.10;91.80;;;;;;4987874;28;20197;-73
2022/11/15 02:04:38;;;;;;;2.50;2.30;;;21.00;91.80;;;;;;4985306;28;20207;-73
2022/11/15 02:07:07;;;;;;;5.30;2.45;;;21.00;91.90;;;;;;4994364;28;20204;-73
2022/11/15 02:09:36;;;;;;;3.42;2.30;;;21.00;92.00;;;;;;5004797;28;20193;-74
2022/11/15 02:12:03;;;;;;;3.42;2.10;;;21.00;92.00;;;;;;4990366;28;20253;-73
2022/11/15 02:14:31;;;;;;;5.43;2.67;;;21.00;91.90;;;;;;4990191;28;20227;-73
2022/11/15 02:17:08;;;;;;;3.67;2.85;;;21.00;91.80;;;;;;4988986;28;20229;-74
2022/11/15 02:20:05;;;;;;;3.90;2.88;;;21.10;91.80;;;;;;4983760;28;20199;-73
2022/11/15 02:22:39;;;;;;;2.53;2.33;;;21.10;91.70;;;;;;4993804;28;20210;-73
2022/11/15 02:25:29;;;;;;;2.58;2.38;;;21.10;91.70;;;;;;4992796;28;20683;-74
2022/11/15 02:28:12;;;;;;;2.30;2.10;;;21.10;91.80;;;;;;4981587;28;20211;-73
2022/11/15 02:30:43;;;;;;;2.22;2.03;;;21.00;91.80;;;;;;4992651;28;20204;-73
2022/11/15 02:33:19;;;;;;;2.60;2.40;;;21.10;91.80;;;;;;4996837;28;20312;-73
2022/11/15 02:35:51;;;;;;;3.30;2.42;;;21.00;91.80;;;;;;4994273;28;20207;-74
2022/11/15 02:38:23;;;;;;;2.85;2.60;;;21.00;91.80;;;;;;4990435;28;20210;-73
2022/11/15 02:40:54;;;;;;;4.80;2.00;;;21.00;91.90;;;;;;5003196;28;20208;-73
2022/11/15 02:46:19;;;;;;;2.42;2.10;;;21.00;91.90;;;;;;4995357;28;20211;-72
2022/11/15 02:48:46;;;;;;;3.70;2.50;;;21.00;91.90;;;;;;4988253;28;20212;-73
2022/11/15 02:51:14;;;;;;;2.90;2.70;;;21.00;92.00;;;;;;4989810;28;20224;-73
2022/11/15 02:53:41;;;;;;;2.25;2.05;;;21.00;92.00;;;;;;4988938;28;20212;-73
2022/11/15 02:56:12;;;;;;;2.85;2.65;;;20.90;92.00;;;;;;5005378;28;20208;-72
2022/11/15 02:59:02;;;;;;;3.50;3.20;;;20.90;92.00;;;;;;5003271;28;20204;-73
2022/11/15 03:01:46;;;;;;;3.03;2.45;;;20.90;92.00;;;;;;5000793;28;20220;-72
2022/11/15 03:04:24;;;;;;;2.58;2.15;;;20.90;92.10;;;;;;4985276;28;20204;-73
2022/11/15 03:07:08;;;;;;;3.83;2.40;;;20.90;92.10;;;;;;5001887;28;20211;-74
2022/11/15 03:09:38;;;;;;;2.70;2.08;;;20.90;92.30;;;;;;5003762;28;20207;-72
2022/11/15 03:12:08;;;;;;;3.58;2.42;;;20.80;92.60;;;;;;4992683;28;20232;-73
2022/11/15 03:14:41;;;;;;;3.28;2.20;;;20.70;92.80;;;;;;4993457;28;20199;-73
2022/11/15 03:17:23;;;;;;;2.58;2.30;;;20.70;92.90;;;;;;4992002;28;20236;-72
2022/11/15 03:19:53;;;;;;;2.22;2.03;;;20.70;93.00;;;;;;4987893;28;20209;-75
2022/11/15 03:22:23;;;;;;;2.47;2.10;;;20.70;93.00;;;;;;5000909;28;20216;-71
2022/11/15 03:24:55;;;;;;;2.20;2.00;;;20.70;92.90;;;;;;5006298;28;20821;-71
2022/11/15 03:27:25;;;;;;;2.78;2.25;;;20.70;92.90;;;;;;4990592;28;20205;-71
2022/11/15 03:29:57;;;;;;;2.50;2.30;;;20.70;92.80;;;;;;4994342;28;20201;-72
2022/11/15 03:32:28;;;;;;;1.80;1.70;;;20.70;92.70;;;;;;4999030;28;20704;-71
2022/11/15 03:34:59;;;;;;;3.75;2.40;;;20.70;92.70;;;;;;4990678;28;20200;-71
2022/11/15 03:37:30;;;;;;;3.38;2.40;;;20.70;92.80;;;;;;4999051;28;20668;-73
2022/11/15 03:39:57;;;;;;;2.25;2.08;;;20.70;92.70;;;;;;4984814;28;20682;-71
2022/11/15 03:42:31;;;;;;;3.20;2.05;;;20.70;92.80;;;;;;4994265;28;20201;-73
2022/11/15 03:45:03;;;;;;;3.00;2.42;;;20.70;92.80;;;;;;4998848;28;20196;-71
2022/11/15 03:47:35;;;;;;;3.35;2.15;;;20.70;92.80;;;;;;4999783;28;20197;-72
2022/11/15 03:50:05;;;;;;;2.50;1.95;;;20.70;92.80;;;;;;4994510;28;20216;-71
2022/11/15 03:52:34;;;;;;;2.40;2.20;;;20.70;92.80;;;;;;4991846;28;20690;-75
2022/11/15 03:55:03;;;;;;;2.92;2.40;;;20.70;92.90;;;;;;5002805;28;20642;-76
2022/11/15 03:57:30;;;;;;;2.95;2.38;;;20.70;92.90;;;;;;5002531;28;20580;-76
2022/11/15 03:59:57;;;;;;;2.10;1.90;;;20.70;92.90;;;;;;5005450;28;20207;-76
2022/11/15 04:02:24;;;;;;;2.42;2.10;;;20.70;92.90;;;;;;5004740;28;20228;-76
2022/11/15 04:04:52;;;;;;;2.85;2.55;;;20.60;92.90;;;;;;4993072;28;20200;-76
2022/11/15 04:07:18;;;;;;;2.20;2.00;;;20.60;92.90;;;;;;4996069;28;20660;-76
2022/11/15 04:12:31;;;;;;;2.35;2.15;;;20.60;92.90;;;;;;4986322;28;20324;-76
2022/11/15 04:15:08;;;;;;;2.40;2.20;;;20.60;93.00;;;;;;4985631;28;20189;-76
2022/11/15 04:17:36;;;;;;;3.53;2.17;;;20.60;93.00;;;;;;4993648;28;20291;-75
2022/11/15 04:25:36;;;;;;;3.35;2.25;;;20.50;93.00;;;;;;4993411;28;20250;-76
2022/11/15 04:28:03;;;;;;;3.90;2.13;;;20.50;93.10;;;;;;4986658;28;20208;-77
2022/11/15 04:30:30;;;;;;;2.65;2.30;;;20.50;93.10;;;;;;4993970;28;20259;-76
2022/11/15 04:32:58;;;;;;;2.40;2.20;;;20.50;93.50;;;;;;4989241;28;20220;-76
2022/11/15 04:35:26;;;;;;;2.15;1.90;;;20.50;93.10;;;;;;4991997;28;20668;-76
2022/11/15 04:37:51;;;;;;;2.90;2.25;;;20.50;93.20;;;;;;4991539;28;20204;-76
2022/11/15 04:40:18;;;;;;;3.20;2.90;;;20.50;93.20;;;;;;4992730;28;20216;-76
2022/11/15 04:42:45;;;;;;;2.30;2.08;;;20.50;93.50;;;;;;4993031;28;20208;-75
2022/11/15 04:45:12;;;;;;;2.90;2.40;;;20.50;93.70;;;;;;4988356;28;20213;-76
2022/11/15 04:47:39;;;;;;;4.60;2.30;;;20.60;93.50;;;;;;4991077;28;20220;-76
2022/11/15 04:50:07;;;;;;;2.58;2.38;;;20.60;93.50;;;;;;5003815;28;20200;-77
2022/11/15 04:52:35;;;;;;;2.20;2.00;;;20.50;93.40;;;;;;4989582;28;20228;-76
2022/11/15 04:55:01;;;;;;;2.30;2.10;;;20.50;93.50;;;;;;5012459;28;20361;-75
2022/11/15 04:57:28;;;;;;;2.30;2.10;;;20.50;93.50;;;;;;5009668;28;20204;-76
2022/11/15 04:59:55;;;;;;;2.28;2.08;;;20.50;93.60;;;;;;4998621;28;20205;-75
2022/11/15 05:02:21;;;;;;;2.20;2.00;;;20.40;93.60;;;;;;4991689;28;20655;-76
2022/11/15 05:04:47;;;;;;;1.70;1.60;;;20.40;93.70;;;;;;4990983;28;20208;-76
2022/11/15 05:07:14;;;;;;;1.93;1.70;;;20.40;93.70;;;;;;4995253;28;20196;-76
2022/11/15 05:09:42;;;;;;;2.20;1.90;;;20.40;93.80;;;;;;5008712;28;20200;-76
2022/11/15 05:12:09;;;;;;;3.42;1.88;;;20.40;93.80;;;;;;4991320;28;20217;-76
2022/11/15 05:14:35;;;;;;;2.03;1.90;;;20.40;93.90;;;;;;4986390;28;20201;-76
2022/11/15 05:17:02;;;;;;;3.45;2.10;;;20.30;93.90;;;;;;4992346;28;20243;-76
2022/11/15 05:19:29;;;;;;;2.35;2.15;;;20.40;93.90;;;;;;4985391;28;20208;-76
2022/11/15 05:21:55;;;;;;;2.28;2.05;;;20.40;93.90;;;;;;4994880;28;20223;-76
2022/11/15 05:24:22;;;;;;;1.80;1.70;;;20.40;93.90;;;;;;5008798;28;20204;-75
2022/11/15 05:26:50;;;;;;;2.40;2.20;;;20.40;93.90;;;;;;4989292;28;20652;-76
2022/11/15 05:29:17;;;;;;;4.68;1.80;;;20.40;93.90;;;;;;4991051;28;20201;-76
2022/11/15 05:31:44;;;;;;;2.40;2.20;;;20.40;93.90;;;;;;4996949;28;20197;-76
2022/11/15 05:34:11;;;;;;;2.95;2.15;;;20.40;93.90;;;;;;4988052;28;20235;-75
2022/11/15 05:36:39;;;;;;;2.20;2.00;;;20.40;93.90;;;;;;4992235;28;20201;-76
2022/11/15 05:39:07;;;;;;;2.20;2.00;;;20.40;93.80;;;;;;4992542;28;20197;-76
2022/11/15 05:41:39;;;;;;;2.05;1.80;;;20.40;93.90;;;;;;4990404;28;20201;-76
2022/11/15 05:44:11;;;;;;;2.10;1.83;;;20.40;93.80;;;;;;5001942;28;20203;-76
2022/11/15 05:46:40;;;;;;;2.15;1.80;;;20.40;93.90;;;;;;5001847;28;20725;-76
2022/11/15 05:49:10;;;;;;;2.22;2.03;;;20.40;93.90;;;;;;4990980;28;20197;-76
2022/11/15 05:51:37;;;;;;;1.70;1.60;;;20.40;93.90;;;;;;4988738;28;20201;-76
2022/11/15 05:54:04;;;;;;;2.03;1.92;;;20.40;93.90;;;;;;4991531;28;20246;-76
2022/11/15 05:56:31;;;;;;;1.70;1.60;;;20.30;94.00;;;;;;4998467;28;20224;-75
2022/11/15 05:58:59;;;;;;;2.38;2.17;;;20.40;94.30;;;;;;5005754;28;20200;-76
2022/11/15 06:01:28;;;;;;;1.60;1.50;;;20.50;94.10;;;;;;4995217;28;20644;-76
2022/11/15 06:03:55;;;;;;;1.73;1.50;;;20.60;94.00;;;;;;4978446;28;20197;-76
2022/11/15 06:06:22;;;;;;;2.50;1.83;;;20.70;93.80;;;;;;4996425;28;20699;-75
2022/11/15 06:08:49;;;;;;;2.15;1.95;;;20.80;93.90;;;;;;5000030;28;20652;-76
2022/11/15 06:11:15;;;;;;;2.65;1.90;;;20.80;93.40;;;;;;4994162;28;20208;-76
2022/11/15 06:13:42;;;;;;;2.05;1.95;;;20.90;93.30;;;;;;4992038;28;20228;-76
2022/11/15 06:16:09;;;;;;;2.40;2.20;;;21.00;93.00;;;;;;4991470;28;20627;-75
2022/11/15 06:18:37;;;;;;;2.05;1.85;;;21.00;92.90;;;;;;4999016;28;20456;-75
2022/11/15 06:21:04;;;;;;;2.33;1.93;;;21.00;92.80;;;;;;4992014;28;20209;-77
2022/11/15 06:23:33;;;;;;;2.93;1.70;;;21.10;92.70;;;;;;4986623;28;20464;-75
2022/11/15 06:26:00;;;;;;;2.13;1.97;;;21.10;92.50;;;;;;4989280;28;20461;-76
2022/11/15 06:28:29;;;;;;;1.90;1.80;;;21.10;92.40;;;;;;4998790;28;20947;-75
2022/11/15 06:30:56;;;;;;;1.93;1.83;;;21.10;92.40;;;;;;4983147;28;20535;-76
2022/11/15 06:33:22;;;;;;;1.97;1.87;;;21.10;92.40;;;;;;4988052;28;21030;-76
2022/11/15 06:35:50;;;;;;;1.67;1.53;;;21.10;92.40;;;;;;4992137;28;20465;-76
2022/11/15 06:38:17;;;;;;;2.83;2.43;;;21.10;92.40;;;;;;4992532;28;20963;-76
2022/11/15 06:40:44;;;;;;;1.95;1.75;;;21.10;92.40;;;;;;4999038;28;20447;-76
2022/11/15 06:43:10;;;;;;;2.90;2.10;;;21.10;92.30;;;;;;4989340;28;20208;-76
2022/11/15 06:45:37;;;;;;;2.67;2.13;;;21.10;92.30;;;;;;4987613;28;20578;-76
2022/11/15 06:48:04;;;;;;;2.50;2.00;;;21.10;92.30;;;;;;4983593;28;20748;-77
2022/11/15 06:50:31;;;;;;;2.17;1.90;;;21.20;92.30;;;;;;4996660;28;20445;-76
2022/11/15 06:53:04;;;;;;;2.80;2.37;;;21.40;92.00;;;;;;4993948;28;20486;-75
2022/11/15 06:55:30;;;;;;;2.00;1.60;;;21.50;91.70;;;;;;4990065;28;20974;-75
2022/11/15 06:57:57;;;;;;;2.13;1.57;;;21.50;91.60;;;;;;4998780;28;20839;-76
2022/11/15 07:00:24;;;;;;;2.27;1.90;;;21.50;91.40;;;;;;4990734;28;20468;-75
2022/11/15 07:02:51;;;;;;;1.63;1.53;;;21.60;91.40;;;;;;4988825;28;20456;-75
2022/11/15 07:05:18;;;;;;;2.10;1.90;;;21.70;91.30;;;;;;4989473;28;20456;-76
2022/11/15 07:07:51;;;;;;;1.70;1.60;;;21.80;91.00;;;;;;4988704;28;20452;-75
2022/11/15 07:10:19;;;;;;;1.80;1.53;;;21.80;90.90;;;;;;4990024;28;20490;-75
2022/11/15 07:12:48;;;;;;;3.57;1.93;;;21.80;90.70;;;;;;5001167;28;20472;-75
2022/11/15 07:15:15;;;;;;;1.80;1.53;;;21.80;90.70;;;;;;4996686;28;20823;-75
2022/11/15 07:17:41;;;;;;;1.40;1.30;;;21.80;90.70;;;;;;4999229;28;20455;-76
2022/11/15 07:20:09;;;;;;;1.90;1.80;;;21.80;90.60;;;;;;4987229;28;20483;-76
2022/11/15 07:22:35;;;;;;;1.73;1.50;;;21.80;90.60;;;;;;5001213;28;20444;-77
2022/11/15 07:25:02;;;;;;;1.87;1.60;;;21.80;90.60;;;;;;4994278;28;20854;-76
2022/11/15 07:27:31;;;;;;;2.27;2.07;;;21.80;90.50;;;;;;4991230;28;20460;-75
2022/11/15 07:30:02;;;;;;;2.60;1.90;;;21.80;90.50;;;;;;4990558;28;20931;-76
2022/11/15 07:32:29;;;;;;;1.70;1.40;;;21.80;90.50;;;;;;5001380;28;20463;-75
2022/11/15 07:34:56;;;;;;;2.37;2.17;;;21.80;90.50;;;;;;4984938;28;20463;-76
2022/11/15 07:37:23;;;;;;;2.17;1.43;;;21.90;90.40;;;;;;4995457;28;20467;-76
2022/11/15 07:39:49;;;;;;;2.30;1.73;;;22.00;90.30;;;;;;4989134;28;20460;-75
2022/11/15 07:45:02;;;;;;;1.40;1.30;;;22.10;90.00;;;;;;4994703;28;20452;-76
2022/11/15 07:47:30;;;;;;;2.10;1.70;;;22.10;89.70;;;;;;4998913;28;20464;-75
2022/11/15 07:49:56;;;;;;;2.10;1.67;;;22.20;90.10;;;;;;4986976;28;20465;-77
2022/11/15 07:52:23;;;;;;;2.10;1.30;;;22.20;89.10;;;;;;4996207;28;20963;-75
2022/11/15 07:54:50;;;;;;;1.60;1.40;;;22.30;89.80;;;;;;4992181;28;20487;-75
2022/11/15 07:57:16;;;;;;;2.13;1.77;;;22.30;89.70;;;;;;4989604;28;20467;-76
2022/11/15 07:59:43;;;;;;;1.60;1.50;;;22.30;89.10;;;;;;4990059;28;20460;-75
2022/11/15 08:02:11;;;;;;;1.97;1.87;;;22.40;88.70;;;;;;4988789;28;20467;-76
2022/11/15 08:04:38;;;;;;;2.10;1.90;;;22.40;88.10;;;;;;4986248;28;20468;-75
2022/11/15 08:07:05;;;;;;;1.50;1.40;;;22.50;87.70;;;;;;4992461;28;20455;-76
2022/11/15 08:09:31;;;;;;;1.70;1.60;;;22.50;87.10;;;;;;4992235;28;20460;-76
2022/11/15 08:11:58;;;;;;;1.90;1.77;;;22.50;86.70;;;;;;4990325;28;20841;-76
2022/11/15 08:14:25;;;;;;;2.00;1.80;;;22.60;87.50;;;;;;4993348;28;20483;-75
2022/11/15 08:16:52;;;;;;;1.47;1.37;;;22.60;86.60;;;;;;4992146;28;20488;-75
2022/11/15 08:19:20;;;;;;;1.60;1.47;;;22.60;86.80;;;;;;4990329;28;21022;-76
2022/11/15 08:21:47;;;;;;;1.60;1.50;;;22.60;86.50;;;;;;5001992;28;20465;-75
2022/11/15 08:24:14;;;;;;;2.40;1.80;;;22.70;86.50;;;;;;4999214;28;20466;-76
2022/11/15 08:26:40;;;;;;;1.97;1.77;;;22.70;86.40;;;;;;4992399;28;20459;-76
2022/11/15 08:29:08;;;;;;;1.57;1.47;;;22.70;87.00;;;;;;4995093;28;20460;-75
2022/11/15 08:31:36;;;;;;;3.10;1.67;;;22.80;86.10;;;;;;4996552;28;20831;-76
2022/11/15 08:34:03;;;;;;;2.10;1.90;;;22.80;86.00;;;;;;4989099;28;21213;-75
2022/11/15 08:36:31;;;;;;;3.30;1.50;;;22.80;86.00;;;;;;5002051;28;20447;-74
2022/11/15 08:38:58;;;;;;;2.10;1.53;;;22.80;85.90;;;;;;4992383;28;20461;-74
2022/11/15 08:41:27;;;;;;;2.17;1.97;;;22.80;85.60;;;;;;4989880;28;20463;-74
2022/11/15 08:43:54;;;;;;;1.67;1.47;;;22.80;85.60;;;;;;4994940;28;20464;-74
2022/11/15 08:46:21;;;;;;;2.00;1.40;;;22.80;85.50;;;;;;4990560;28;20452;-74
2022/11/15 08:48:48;;;;;;;2.53;1.93;;;22.90;85.40;;;;;;4987867;28;20791;-74
2022/11/15 08:51:14;;;;;;;2.73;1.27;;;22.90;85.30;;;;;;5005144;28;20450;-74
2022/11/15 08:53:42;;;;;;;2.33;2.03;;;22.90;85.20;;;;;;4994374;28;20506;-74
2022/11/15 08:56:10;;;;;;;1.73;1.63;;;22.90;85.00;;;;;;4988830;28;20964;-74
2022/11/15 08:58:37;;;;;;;3.60;1.67;;;22.90;84.80;;;;;;4992444;28;20467;-74
2022/11/15 09:01:05;;;;;;;1.73;1.40;;;22.90;84.80;;;;;;4989789;28;20939;-74
2022/11/15 09:03:32;;;;;;;2.13;1.57;;;23.00;84.60;;;;;;4989211;28;20459;-74
2022/11/15 09:06:00;;;;;;;1.23;1.13;;;23.00;84.30;;;;;;4988576;28;20467;-74
2022/11/15 09:08:31;;;;;;;1.23;1.13;;;23.10;84.30;;;;;;4984747;28;20851;-74
2022/11/15 09:10:59;;;;;;;1.70;1.40;;;23.20;84.10;;;;;;4984957;28;20471;-74
2022/11/15 09:13:26;;;;;;;1.50;1.30;;;23.20;84.00;;;;;;4990633;28;20480;-74
2022/11/15 09:15:52;;;;;;;1.47;1.37;;;23.20;83.90;;;;;;4982833;28;20476;-74
2022/11/15 09:18:22;;;;;;;2.00;1.57;;;23.20;84.40;;;;;;4987272;28;20453;-74
2022/11/15 09:20:48;;;;;;;4.43;2.20;;;23.20;84.60;;;;;;4987121;28;20514;-75
2022/11/15 09:23:15;;;;;;;7.10;1.70;;;23.20;85.20;;;;;;5003205;28;20451;-75
2022/11/15 09:25:42;;;;;;;2.13;1.57;;;23.20;84.80;;;;;;4995987;28;20510;-74
2022/11/15 09:28:10;;;;;;;3.83;1.77;;;23.20;84.20;;;;;;4987353;28;20464;-75
2022/11/15 09:30:37;;;;;;;5.97;1.60;;;23.20;83.70;;;;;;4992735;28;20447;-75
2022/11/15 09:33:08;;;;;;;3.47;2.00;;;23.20;83.50;;;;;;4990561;28;20972;-75
2022/11/15 09:35:35;;;;;;;2.27;1.43;;;23.20;83.30;;;;;;4997040;28;20460;-75
2022/11/15 09:38:01;;;;;;;3.27;1.73;;;23.10;83.20;;;;;;4990063;28;20470;-75
2022/11/15 09:40:30;;;;;;;2.60;1.53;;;23.10;83.10;;;;;;4986184;28;20463;-75
2022/11/15 09:43:08;;;;;;;3.83;1.40;;;23.10;83.00;;;;;;4990771;28;20986;-75
2022/11/15 09:45:49;;;;;;;3.60;1.93;;;23.10;82.90;;;;;;4990783;28;20463;-75
2022/11/15 09:48:32;;;;;;;2.40;1.50;;;23.10;82.80;;;;;;4995781;28;20467;-75
2022/11/15 09:51:02;;;;;;;1.90;1.40;;;23.10;82.80;;;;;;4991926;28;20448;-75
2022/11/15 09:53:42;;;;;;;2.27;1.50;;;23.10;82.80;;;;;;4995167;28;20487;-75
2022/11/15 09:56:16;;;;;;;1.60;1.23;;;23.10;82.60;;;;;;4983767;28;20475;-75
2022/11/15 09:58:55;;;;;;;5.13;1.67;;;23.10;82.40;;;;;;4997412;28;20458;-75
2022/11/15 10:01:37;;;;;;;3.97;1.43;;;23.20;82.20;;;;;;4999395;28;20800;-75
2022/11/15 10:04:04;;;;;;;4.40;2.13;;;23.30;81.80;;;;;;4987787;28;20482;-75
2022/11/15 10:06:33;;;;;;;1.53;1.13;;;23.40;81.30;;;;;;4991247;28;20951;-75
2022/11/15 10:09:05;;;;;;;2.03;1.60;;;23.40;80.90;;;;;;4990610;28;20990;-75
2022/11/15 10:11:35;;;;;;;1.87;1.33;;;23.50;80.70;;;;;;4983456;28;20460;-75
2022/11/15 10:14:05;;;;;;;2.17;1.53;;;23.50;80.50;;;;;;4990695;28;20484;-75
2022/11/15 10:16:58;;;;;;;2.87;1.33;;;23.50;80.40;;;;;;4990413;28;20487;-75
2022/11/15 10:19:33;;;;;;;1.70;1.60;;;23.50;80.00;;;;;;4986722;28;20454;-75
2022/11/15 10:22:13;;;;;;;2.30;1.53;;;23.60;79.90;;;;;;4995907;28;21005;-75
2022/11/15 10:24:44;;;;;;;2.30;1.53;;;23.60;79.70;;;;;;4993086;28;20497;-75
2022/11/15 10:27:13;;;;;;;2.23;1.40;;;23.50;79.50;;;;;;4988616;28;20456;-75
2022/11/15 10:29:45;;;;;;;3.20;1.77;;;23.60;79.50;;;;;;4995716;28;20938;-74
2022/11/15 10:32:14;;;;;;;1.80;1.40;;;23.60;79.40;;;;;;4984353;28;20977;-75
2022/11/15 10:34:41;;;;;;;2.17;1.37;;;23.50;79.20;;;;;;4982061;28;20484;-75
2022/11/15 10:37:08;;;;;;;1.93;1.53;;;23.60;79.20;;;;;;4994418;28;20464;-75
2022/11/15 10:39:35;;;;;;;2.10;1.20;;;23.60;78.90;;;;;;4990295;28;20952;-76
2022/11/15 10:42:17;;;;;;;2.67;1.17;;;23.60;78.40;;;;;;4987253;28;20470;-77
2022/11/15 10:44:45;;;;;;;1.53;1.23;;;23.50;78.50;;;;;;4990954;28;20452;-76
2022/11/15 10:47:31;;;;;;;1.57;1.40;;;23.60;79.00;;;;;;4992067;28;20464;-76
2022/11/15 10:50:08;;;;;;;1.87;1.50;;;23.50;79.20;;;;;;4987042;28;20464;-76
2022/11/15 10:52:37;;;;;;;9.00;1.90;;;23.60;79.60;;;;;;5001458;28;20942;-75
2022/11/15 10:55:20;;;;;;;11.10;2.33;;;23.50;79.90;;;;;;4992482;28;20472;-76
2022/11/15 10:57:52;;;;;;;3.77;1.40;;;23.50;80.30;;;;;;4996188;28;20470;-78
2022/11/15 11:00:30;;;;;;;4.00;2.03;;;23.60;80.70;;;;;;4989551;28;20468;-77
2022/11/15 11:03:01;;;;;;;10.63;1.90;;;23.60;80.40;;;;;;4990472;28;21026;-77
2022/11/15 11:05:31;;;;;;;6.63;1.57;;;23.60;80.60;;;;;;4991548;28;20489;-77
2022/11/15 11:08:02;;;;;;;3.57;1.50;;;23.60;81.50;;;;;;4984856;28;20526;-76
2022/11/15 11:10:29;;;;;;;5.10;1.87;;;23.60;81.40;;;;;;4998613;28;20462;-76
2022/11/15 11:12:57;;;;;;;6.35;1.80;;;23.60;81.70;;;;;;4998412;28;20817;-76
2022/11/15 11:15:29;;;;;;;4.53;1.90;;;23.60;81.60;;;;;;4992914;28;20230;-78
2022/11/15 11:18:09;;;;;;;2.50;1.63;;;23.60;81.70;;;;;;4993752;28;20939;-79
2022/11/15 11:20:39;;;;;;;12.50;2.90;;;23.60;81.70;;;;;;4999107;28;20815;-76
2022/11/15 11:23:24;;;;;;;9.43;2.00;;;23.60;82.00;;;;;;4985049;28;20468;-78
2022/11/15 11:26:03;;;;;;;2.80;1.63;;;23.60;81.90;;;;;;4997154;28;20459;-78
2022/11/15 11:28:40;;;;;;;3.73;1.70;;;23.60;81.10;;;;;;4998905;28;20567;-78
2022/11/15 11:31:22;;;;;;;2.77;1.60;;;23.60;81.10;;;;;;4991994;28;20503;-77
2022/11/15 11:34:01;;;;;;;3.67;1.60;;;23.60;81.10;;;;;;4990771;28;20909;-78
2022/11/15 11:36:37;;;;;;;2.90;1.80;;;23.70;81.10;;;;;;5005563;28;20466;-77
2022/11/15 11:39:19;;;;;;;1.73;1.27;;;23.70;80.90;;;;;;5013796;28;20465;-78
2022/11/15 11:41:59;;;;;;;7.00;1.90;;;23.70;80.80;;;;;;4991032;28;20452;-78
2022/11/15 11:44:42;;;;;;;8.50;2.10;;;23.70;80.70;;;;;;4998523;28;20436;-77
2022/11/15 11:47:12;;;;;;;2.37;1.47;;;23.80;80.70;;;;;;4974740;28;20944;-78
2022/11/15 11:49:47;;;;;;;6.27;1.77;;;23.80;80.50;;;;;;4976930;28;20479;-77
2022/11/15 11:52:19;;;;;;;2.00;1.40;;;23.80;80.40;;;;;;5001814;28;20436;-78
2022/11/15 11:54:58;;;;;;;1.80;1.40;;;23.80;80.30;;;;;;4994355;28;20582;-78
2022/11/15 11:57:33;;;;;;;2.87;1.53;;;23.80;80.20;;;;;;4989032;28;20464;-76
2022/11/15 12:00:11;;;;;;;4.50;1.50;;;23.80;80.10;;;;;;4989262;28;20464;-77
2022/11/15 12:02:42;;;;;;;1.60;1.20;;;23.80;80.00;;;;;;4993449;28;20443;-77
2022/11/15 12:05:17;;;;;;;1.40;1.10;;;23.80;79.80;;;;;;4996243;28;20460;-77
2022/11/15 12:07:47;;;;;;;1.50;1.07;;;23.80;79.80;;;;;;4990826;28;20542;-77
2022/11/15 12:10:21;;;;;;;2.10;1.33;;;23.80;79.80;;;;;;4986544;28;20470;-79
2022/11/15 12:12:55;;;;;;;2.77;1.60;;;23.80;79.70;;;;;;4985427;28;20471;-77
2022/11/15 12:15:25;;;;;;;4.93;1.83;;;23.80;79.70;;;;;;4992673;28;20488;-78
2022/11/15 12:17:52;;;;;;;2.63;1.57;;;23.80;79.70;;;;;;4991723;28;20460;-78
2022/11/15 12:20:23;;;;;;;1.83;1.40;;;23.80;79.60;;;;;;4988478;28;20852;-77
2022/11/15 12:22:56;;;;;;;2.80;1.40;;;23.80;79.60;;;;;;4993189;28;20448;-78
2022/11/15 12:25:28;;;;;;;1.80;1.20;;;23.80;79.50;;;;;;4992655;28;20487;-78
2022/11/15 12:27:59;;;;;;;1.70;0.97;;;23.80;79.50;;;;;;4982738;28;20472;-77
2022/11/15 12:30:31;;;;;;;2.83;2.03;;;23.80;79.30;;;;;;5001781;28;20519;-76
2022/11/15 12:33:01;;;;;;;2.07;1.40;;;23.80;79.30;;;;;;5003728;28;20446;-77
2022/11/15 12:35:35;;;;;;;2.00;1.30;;;23.80;79.30;;;;;;4989509;28;20991;-76
2022/11/15 12:38:02;;;;;;;2.40;1.20;;;23.80;79.30;;;;;;4993072;28;20811;-77
2022/11/15 12:40:35;;;;;;;2.17;1.50;;;23.80;79.20;;;;;;4991544;28;20462;-79
2022/11/15 12:43:37;;;;;;;2.40;1.50;;;23.80;79.20;;;;;;4991209;28;20990;-78
2022/11/15 12:46:08;;;;;;;2.93;1.40;;;23.80;79.20;;;;;;4995064;28;20445;-77
2022/11/15 12:48:53;;;;;;;1.30;1.10;;;23.80;79.20;;;;;;4995815;28;20461;-78
2022/11/15 12:52:06;;;;;;;1.40;1.07;;;23.80;79.10;;;;;;4977755;28;20982;-78
2022/11/15 12:54:59;;;;;;;2.87;1.20;;;23.80;79.10;;;;;;4988120;28;21003;-79
2022/11/15 12:57:39;;;;;;;1.57;1.30;;;23.80;79.50;;;;;;4987769;28;20573;-79
2022/11/15 13:00:44;;;;;;;1.87;1.23;;;23.80;78.90;;;;;;4994608;28;20546;-79
2022/11/15 13:03:20;;;;;;;2.33;1.27;;;23.80;78.90;;;;;;4989043;28;20456;-78
2022/11/15 13:06:05;;;;;;;1.70;0.93;;;23.80;78.90;;;;;;4999781;28;20453;-77
2022/11/15 13:08:48;;;;;;;1.80;1.00;;;23.80;78.70;;;;;;4989342;28;20448;-78
2022/11/15 13:11:48;;;;;;;2.70;1.43;;;23.80;78.70;;;;;;4990308;28;20452;-77
2022/11/15 13:14:49;;;;;;;2.43;1.30;;;23.80;78.70;;;;;;4995490;28;20455;-78
2022/11/15 13:17:34;;;;;;;1.87;1.53;;;23.80;78.60;;;;;;4991261;28;20819;-79